Time;durP1;ratioP1;P1;durP2;ratioP2;P2;SDS_P1;SDS_P2;PMS_P1;PMS_P2;Temp;Humidity;BMP_temperature;BMP_pressure;BME280_temperature;BME280_humidity;BME280_pressure;Samples;Min_cycle;Max_cycle;Signal;HPM_P1;HPM_P2
2023/11/10 00:00:00;;;;;;;5.63;4.18;;;;;;;9.75;77.29;97936.91;4954294;28;20484;-77
2023/11/10 00:02:27;;;;;;;5.68;4.57;;;;;;;9.75;77.44;97934.28;4954173;28;20066;-75
2023/11/10 00:04:53;;;;;;;5.40;4.10;;;;;;;9.78;77.52;97935.81;4961558;28;20051;-75
2023/11/10 00:07:20;;;;;;;7.22;4.38;;;;;;;9.77;77.22;97934.97;4952858;28;20051;-75
2023/11/10 00:09:47;;;;;;;5.50;4.13;;;;;;;9.79;77.42;97934.84;4964153;28;20110;-78
2023/11/10 00:12:14;;;;;;;7.63;4.30;;;;;;;9.80;77.39;97927.81;4951435;28;20134;-75
2023/11/10 00:14:41;;;;;;;5.85;4.10;;;;;;;9.80;77.02;97925.19;4953176;28;20130;-77
2023/11/10 00:17:09;;;;;;;10.68;4.57;;;;;;;9.81;77.04;97929.47;4952924;28;20055;-75
2023/11/10 00:19:42;;;;;;;8.45;4.47;;;;;;;9.80;76.87;97935.69;4959006;28;20137;-75
2023/11/10 00:22:09;;;;;;;;;;;;;;;9.78;75.63;97930.56;4952952;28;20047;-75
2023/11/10 00:24:40;;;;;;;4.35;3.45;;;;;;;9.81;76.05;97926.84;4967912;28;19930;-77
2023/11/10 00:27:07;;;;;;;4.60;4.10;;;;;;;9.78;76.66;97934.03;4970910;28;20090;-75
2023/11/10 00:29:34;;;;;;;6.07;4.15;;;;;;;9.75;76.58;97929.03;4965634;28;20047;-75
2023/11/10 00:32:00;;;;;;;6.22;4.07;;;;;;;9.74;76.50;97931.78;4959312;28;20554;-77
2023/11/10 00:34:27;;;;;;;5.45;4.00;;;;;;;9.71;76.51;97918.91;4952659;28;20135;-76
2023/11/10 00:36:53;;;;;;;6.30;3.75;;;;;;;9.71;76.86;97918.91;4955703;28;20051;-75
2023/11/10 00:39:20;;;;;;;7.18;3.67;;;;;;;9.69;76.69;97926.94;4956572;28;20059;-75
2023/11/10 00:41:46;;;;;;;4.97;3.90;;;;;;;9.68;76.78;97927.88;4959067;28;20134;-76
2023/11/10 00:44:13;;;;;;;5.70;3.72;;;;;;;9.67;76.71;97926.22;4971760;28;20051;-78
2023/11/10 00:46:40;;;;;;;7.70;3.33;;;;;;;9.66;76.77;97921.91;4955949;28;20083;-75
2023/11/10 00:49:09;;;;;;;5.63;3.58;;;;;;;9.65;76.66;97921.06;4960896;28;20051;-75
2023/11/10 00:51:37;;;;;;;3.65;3.00;;;;;;;9.66;76.63;97921.91;4955849;28;20043;-74
2023/11/10 00:54:04;;;;;;;6.28;3.30;;;;;;;9.66;76.57;97921.91;4956678;28;20102;-75
2023/11/10 00:56:30;;;;;;;8.05;3.10;;;;;;;9.65;76.78;97917.63;4956318;28;20051;-76
2023/11/10 00:58:58;;;;;;;3.88;3.15;;;;;;;9.64;76.40;97911.53;4963027;28;20046;-74
2023/11/10 01:01:26;;;;;;;6.63;3.30;;;;;;;9.63;76.53;97923.00;4970044;28;20130;-74
2023/11/10 01:03:54;;;;;;;5.07;3.17;;;;;;;9.63;76.47;97933.53;4954641;28;20075;-77
2023/11/10 01:06:22;;;;;;;7.30;3.03;;;;;;;9.61;76.42;97914.41;4956721;28;20067;-75
2023/11/10 01:08:48;;;;;;;4.85;2.78;;;;;;;9.61;76.46;97924.09;4958562;28;20105;-74
2023/11/10 01:11:15;;;;;;;3.55;2.80;;;;;;;9.60;76.39;97918.00;4970352;28;20050;-77
2023/11/10 01:13:42;;;;;;;8.50;3.25;;;;;;;9.58;76.57;97922.56;4958735;28;20122;-75
2023/11/10 01:16:08;;;;;;;5.60;2.67;;;;;;;9.58;76.57;97916.47;4955991;28;20094;-75
2023/11/10 01:18:35;;;;;;;6.07;3.30;;;;;;;9.56;76.57;97907.88;4959945;28;20054;-74
2023/11/10 01:21:01;;;;;;;6.82;3.70;;;;;;;9.55;76.65;97901.81;4957770;28;20051;-79
2023/11/10 01:23:29;;;;;;;5.22;3.40;;;;;;;9.54;76.63;97894.03;4955017;28;20051;-75
2023/11/10 01:25:55;;;;;;;4.30;3.50;;;;;;;9.54;76.87;97904.53;4963293;28;20474;-75
2023/11/10 01:28:22;;;;;;;6.72;3.75;;;;;;;9.52;77.00;97902.88;4966579;28;20117;-77
2023/11/10 01:30:50;;;;;;;6.78;4.35;;;;;;;9.52;77.01;97900.25;4965456;28;20069;-75
2023/11/10 01:33:18;;;;;;;6.22;3.90;;;;;;;9.52;77.58;97889.75;4956181;28;20416;-76
2023/11/10 01:35:46;;;;;;;5.93;4.82;;;;;;;9.54;77.27;97894.88;4955058;28;20051;-75
2023/11/10 01:38:12;;;;;;;6.95;5.18;;;;;;;9.55;77.16;97890.44;4955379;28;20118;-75
2023/11/10 01:40:41;;;;;;;6.60;5.00;;;;;;;9.56;77.25;97887.69;4957082;28;20070;-75
2023/11/10 01:43:10;;;;;;;9.02;5.10;;;;;;;9.56;77.12;97885.06;4957229;28;20558;-74
2023/11/10 01:45:37;;;;;;;8.07;5.10;;;;;;;9.56;77.16;97882.44;4956616;28;20098;-74
2023/11/10 01:48:07;;;;;;;11.27;5.65;;;;;;;9.57;77.11;97881.47;4955539;28;20063;-74
2023/11/10 01:50:34;;;;;;;10.60;5.75;;;;;;;9.57;77.49;97878.84;4959698;28;20047;-75
2023/11/10 01:53:06;;;;;;;6.18;4.88;;;;;;;9.57;77.06;97875.41;4965734;28;20047;-77
2023/11/10 01:55:33;;;;;;;8.00;4.68;;;;;;;9.58;77.09;97877.06;4954207;28;20105;-74
2023/11/10 01:58:00;;;;;;;7.97;4.72;;;;;;;9.58;77.30;97874.44;4955099;28;20065;-75
2023/11/10 02:00:30;;;;;;;10.57;4.57;;;;;;;9.58;76.91;97877.06;4970350;28;20118;-75
2023/11/10 02:03:04;;;;;;;6.85;4.10;;;;;;;9.56;76.72;97873.72;4954878;28;20087;-75
2023/11/10 02:05:32;;;;;;;8.23;3.88;;;;;;;9.56;77.02;97874.56;4954862;28;20098;-75
2023/11/10 02:07:59;;;;;;;6.60;3.67;;;;;;;9.56;77.05;97878.97;4954629;28;20499;-77
2023/11/10 02:10:25;;;;;;;4.47;2.85;;;;;;;9.56;77.16;97878.97;4954975;28;20062;-77
2023/11/10 02:12:54;;;;;;;7.50;2.78;;;;;;;9.55;77.13;97867.66;4968047;28;20098;-75
2023/11/10 02:15:22;;;;;;;6.00;3.17;;;;;;;9.54;77.02;97859.91;4963096;28;20047;-74
2023/11/10 02:17:49;;;;;;;4.80;2.53;;;;;;;9.54;76.67;97860.75;4955040;28;20048;-74
2023/11/10 02:20:16;;;;;;;7.28;2.83;;;;;;;9.50;76.60;97868.03;4953370;28;20508;-75
2023/11/10 02:22:47;;;;;;;4.03;2.25;;;;;;;9.47;76.10;97868.31;4966440;28;20054;-75
2023/11/10 02:25:15;;;;;;;4.90;2.03;;;;;;;9.47;76.63;97844.66;4955095;28;20047;-76
2023/11/10 02:27:42;;;;;;;5.72;2.40;;;;;;;9.45;76.59;97854.44;4954636;28;20051;-77
2023/11/10 02:30:09;;;;;;;5.03;1.98;;;;;;;9.43;76.65;97850.28;4954751;28;20547;-75
2023/11/10 02:32:36;;;;;;;7.75;2.15;;;;;;;9.42;76.93;97846.00;4956862;28;20047;-75
2023/11/10 02:35:04;;;;;;;4.70;1.73;;;;;;;9.40;76.71;97851.38;4957489;28;20125;-75
2023/11/10 02:37:31;;;;;;;2.80;1.67;;;;;;;9.41;77.06;97849.59;4954097;28;20400;-75
2023/11/10 02:39:58;;;;;;;4.68;2.10;;;;;;;9.40;76.83;97843.50;4953291;28;20047;-75
2023/11/10 02:42:24;;;;;;;3.42;1.60;;;;;;;9.40;77.06;97846.13;4959054;28;20050;-74
2023/11/10 02:44:51;;;;;;;4.43;1.60;;;;;;;9.40;77.15;97846.13;4965746;28;20047;-76
2023/11/10 02:47:17;;;;;;;3.95;1.70;;;;;;;9.41;77.24;97849.59;4960812;28;20105;-75
2023/11/10 02:49:44;;;;;;;3.17;1.80;;;;;;;9.42;77.38;97849.44;4954436;28;20050;-74
2023/11/10 02:52:11;;;;;;;4.60;1.55;;;;;;;9.43;77.18;97843.25;4953460;28;20054;-75
2023/11/10 02:54:37;;;;;;;5.75;1.90;;;;;;;9.44;76.92;97849.31;4971455;28;20411;-77
2023/11/10 02:57:04;;;;;;;5.05;1.88;;;;;;;9.44;77.04;97846.69;4956131;28;20055;-76
2023/11/10 02:59:31;;;;;;;3.80;1.58;;;;;;;9.44;76.97;97847.53;4953522;28;20488;-74
2023/11/10 03:01:57;;;;;;;5.93;2.28;;;;;;;9.45;76.77;97845.72;4952563;28;20050;-76
2023/11/10 03:04:26;;;;;;;4.40;1.83;;;;;;;9.46;76.98;97842.16;4966937;28;20078;-75
2023/11/10 03:06:53;;;;;;;8.32;1.95;;;;;;;9.46;76.93;97845.59;4955671;28;20046;-75
2023/11/10 03:09:19;;;;;;;2.55;1.83;;;;;;;9.47;76.94;97846.44;4955161;28;20047;-74
2023/11/10 03:11:46;;;;;;;3.85;1.75;;;;;;;9.47;76.98;97839.41;4953644;28;20049;-75
2023/11/10 03:14:12;;;;;;;7.25;1.80;;;;;;;9.49;77.02;97847.13;4964426;28;20785;-76
2023/11/10 03:16:40;;;;;;;5.03;1.85;;;;;;;9.51;77.13;97839.97;4960287;28;20059;-75
2023/11/10 03:19:07;;;;;;;5.38;1.70;;;;;;;9.51;77.31;97847.84;4953961;28;20086;-75
2023/11/10 03:21:33;;;;;;;4.93;1.67;;;;;;;9.53;77.07;97851.16;4968182;28;20055;-75
2023/11/10 03:24:00;;;;;;;2.72;1.40;;;;;;;9.54;76.94;97844.13;4967719;28;20045;-75
2023/11/10 03:26:26;;;;;;;5.60;1.60;;;;;;;9.55;77.03;97843.16;4962302;28;20051;-75
2023/11/10 03:28:53;;;;;;;4.93;1.52;;;;;;;9.56;77.01;97844.81;4953609;28;20448;-75
2023/11/10 03:31:20;;;;;;;5.07;1.70;;;;;;;9.56;76.93;97847.44;4953449;28;20051;-75
2023/11/10 03:33:46;;;;;;;5.45;1.73;;;;;;;9.56;76.57;97850.06;4955296;28;20047;-75
2023/11/10 03:36:13;;;;;;;7.72;1.52;;;;;;;9.56;76.46;97847.44;4956471;28;20062;-74
2023/11/10 03:38:40;;;;;;;3.15;1.00;;;;;;;9.56;76.55;97842.19;4957694;28;20397;-76
2023/11/10 03:41:07;;;;;;;4.05;1.20;;;;;;;9.54;76.58;97849.38;4953431;28;20114;-76
2023/11/10 03:43:33;;;;;;;4.20;1.50;;;;;;;9.54;76.57;97844.13;4971367;28;20484;-76
2023/11/10 03:46:00;;;;;;;3.88;1.27;;;;;;;9.52;76.52;97847.72;4965336;28;20641;-74
2023/11/10 03:48:27;;;;;;;6.88;1.83;;;;;;;9.51;76.77;97840.81;4953416;28;20063;-76
2023/11/10 03:50:54;;;;;;;5.40;1.50;;;;;;;9.51;76.57;97837.34;4953556;28;20050;-75
2023/11/10 03:53:21;;;;;;;5.70;1.70;;;;;;;9.51;76.46;97845.22;4953608;28;20109;-75
2023/11/10 03:55:48;;;;;;;5.18;1.70;;;;;;;9.50;76.84;97841.75;4953269;28;20048;-76
2023/11/10 03:58:15;;;;;;;4.10;1.70;;;;;;;9.51;76.64;97842.59;4963776;28;20129;-75
2023/11/10 04:00:41;;;;;;;4.25;1.42;;;;;;;9.49;76.76;97840.09;4959841;28;20050;-77
2023/11/10 04:03:14;;;;;;;4.63;1.63;;;;;;;9.49;76.50;97841.88;4952098;28;20054;-75
2023/11/10 04:05:44;;;;;;;5.85;1.90;;;;;;;9.49;76.65;97834.84;4953316;28;20084;-76
2023/11/10 04:08:11;;;;;;;5.55;1.85;;;;;;;9.48;76.30;97835.81;4953408;28;20606;-75
2023/11/10 04:10:38;;;;;;;3.35;1.83;;;;;;;9.48;76.52;97837.59;4952839;28;20051;-77
2023/11/10 04:13:04;;;;;;;4.22;1.70;;;;;;;9.48;76.38;97824.47;4964823;28;20055;-75
2023/11/10 04:15:31;;;;;;;6.38;2.83;;;;;;;9.46;76.43;97834.28;4952380;28;20101;-75
2023/11/10 04:18:00;;;;;;;3.80;1.48;;;;;;;9.45;76.21;97836.06;4953215;28;20042;-75
2023/11/10 04:20:26;;;;;;;4.63;2.15;;;;;;;9.44;76.50;97837.03;4953151;28;20502;-77
2023/11/10 04:22:53;;;;;;;3.92;1.77;;;;;;;9.44;76.58;97831.78;4953464;28;20055;-75
2023/11/10 04:25:20;;;;;;;6.60;1.88;;;;;;;9.45;76.61;97833.44;4952595;28;20051;-75
2023/11/10 04:27:46;;;;;;;3.35;1.73;;;;;;;9.46;76.86;97829.03;4956758;28;20051;-76
2023/11/10 04:30:15;;;;;;;3.55;1.70;;;;;;;9.46;77.03;97827.22;4959088;28;20057;-75
2023/11/10 04:32:42;;;;;;;5.38;1.75;;;;;;;9.48;77.20;97830.56;4959121;28;20050;-75
2023/11/10 04:35:15;;;;;;;2.40;1.80;;;;;;;9.49;77.04;97824.34;4953207;28;20055;-77
2023/11/10 04:37:42;;;;;;;4.80;1.88;;;;;;;9.50;76.88;97822.56;4952719;28;20047;-75
2023/11/10 04:40:12;;;;;;;4.35;2.03;;;;;;;9.49;76.25;97836.63;4955779;28;20098;-74
2023/11/10 04:42:39;;;;;;;4.30;2.00;;;;;;;9.50;76.72;97820.75;4970724;28;20051;-75
2023/11/10 04:45:07;;;;;;;6.45;2.35;;;;;;;9.51;76.79;97826.84;4971352;28;20046;-76
2023/11/10 04:47:37;;;;;;;7.10;2.40;;;;;;;9.49;76.81;97824.34;4969711;28;20415;-74
2023/11/10 04:50:05;;;;;;;4.43;2.25;;;;;;;9.51;76.97;97824.22;4970948;28;20381;-75
2023/11/10 04:52:32;;;;;;;5.80;3.17;;;;;;;9.50;76.62;97833.88;4970516;28;20055;-75
2023/11/10 04:54:58;;;;;;;3.47;2.35;;;;;;;9.50;76.83;97833.88;4969514;28;20484;-75
2023/11/10 04:57:26;;;;;;;5.72;2.67;;;;;;;9.49;76.88;97829.59;4962089;28;20500;-77
2023/11/10 04:59:54;;;;;;;3.85;2.65;;;;;;;9.50;77.02;97828.63;4957916;28;20554;-74
2023/11/10 05:02:22;;;;;;;5.03;2.92;;;;;;;9.49;77.17;97832.22;4952781;28;20051;-74
2023/11/10 05:04:50;;;;;;;6.03;3.05;;;;;;;9.51;77.04;97839.97;4952741;28;20078;-76
2023/11/10 05:07:16;;;;;;;8.18;3.08;;;;;;;9.51;77.31;97829.47;4952545;28;20106;-74
2023/11/10 05:09:43;;;;;;;5.65;3.28;;;;;;;9.52;77.26;97831.97;4951983;28;20106;-75
2023/11/10 05:12:09;;;;;;;6.40;2.67;;;;;;;9.53;77.30;97830.16;4952637;28;20056;-76
2023/11/10 05:14:39;;;;;;;8.40;2.65;;;;;;;9.54;77.34;97825.75;4951476;28;20578;-77
2023/11/10 05:17:06;;;;;;;3.30;2.58;;;;;;;9.55;77.14;97825.63;4952268;28;20138;-75
2023/11/10 05:19:33;;;;;;;6.95;2.90;;;;;;;9.55;77.32;97820.38;4960844;28;20635;-75
2023/11/10 05:22:00;;;;;;;9.98;3.28;;;;;;;9.56;76.62;97821.19;4959497;28;20043;-75
2023/11/10 05:24:26;;;;;;;5.75;2.70;;;;;;;9.56;77.22;97821.19;4963795;28;20101;-76
2023/11/10 05:26:53;;;;;;;5.88;3.22;;;;;;;9.56;77.28;97826.44;4961412;28;20078;-75
2023/11/10 05:29:20;;;;;;;7.93;2.72;;;;;;;9.56;77.27;97826.44;4959875;28;20046;-74
2023/11/10 05:31:47;;;;;;;7.18;2.85;;;;;;;9.56;77.39;97829.06;4964683;28;20051;-77
2023/11/10 05:34:16;;;;;;;4.72;2.90;;;;;;;9.56;77.08;97837.78;4955718;28;20085;-74
2023/11/10 05:36:44;;;;;;;6.90;3.42;;;;;;;9.57;77.16;97834.19;4955845;28;20057;-77
2023/11/10 05:39:11;;;;;;;5.70;3.20;;;;;;;9.57;77.07;97838.63;4956040;28;20055;-76
2023/11/10 05:41:40;;;;;;;6.65;2.75;;;;;;;9.57;77.54;97839.44;4954623;28;20492;-77
2023/11/10 05:44:07;;;;;;;5.72;2.90;;;;;;;9.57;77.33;97838.63;4954296;28;20055;-75
2023/11/10 05:46:34;;;;;;;4.90;3.00;;;;;;;9.58;77.51;97840.28;4956121;28;20055;-77
2023/11/10 05:49:00;;;;;;;7.93;3.55;;;;;;;9.59;77.45;97844.56;4957328;28;20051;-75
2023/11/10 05:51:28;;;;;;;5.78;2.78;;;;;;;9.60;77.44;97844.44;4970298;28;20109;-74
2023/11/10 05:53:54;;;;;;;4.57;2.72;;;;;;;9.59;77.39;97842.78;4965404;28;20051;-76
2023/11/10 05:56:23;;;;;;;5.63;2.90;;;;;;;9.60;77.27;97851.50;4968879;28;20091;-75
2023/11/10 05:58:51;;;;;;;5.03;3.03;;;;;;;9.60;77.25;97852.34;4958152;28;20054;-75
2023/11/10 06:01:24;;;;;;;6.47;3.25;;;;;;;9.60;76.60;97851.50;4969178;28;20117;-77
2023/11/10 06:03:51;;;;;;;;;;;;;;;9.60;76.13;97844.44;4957478;28;20046;-76
2023/11/10 06:06:18;;;;;;;7.00;2.92;;;;;;;9.65;77.30;97858.03;4966758;28;19926;-75
2023/11/10 06:08:44;;;;;;;5.75;2.40;;;;;;;9.64;77.16;97847.66;4963523;28;20474;-76
2023/11/10 06:11:22;;;;;;;6.43;2.95;;;;;;;9.59;76.40;97852.47;4960641;28;20070;-75
2023/11/10 06:13:51;;;;;;;7.20;4.05;;;;;;;9.60;76.81;97848.88;4954891;28;20054;-75
2023/11/10 06:16:18;;;;;;;6.22;3.50;;;;;;;9.62;77.30;97852.22;4954430;28;20086;-74
2023/11/10 06:18:45;;;;;;;9.20;4.03;;;;;;;9.60;76.90;97848.88;4953560;28;20047;-74
2023/11/10 06:21:13;;;;;;;7.22;4.38;;;;;;;9.59;77.09;97842.78;4953158;28;20059;-74
2023/11/10 06:23:39;;;;;;;6.70;3.80;;;;;;;9.59;77.52;97850.69;4954942;28;20059;-74
2023/11/10 06:26:06;;;;;;;7.55;3.40;;;;;;;9.59;77.30;97852.47;4955072;28;20055;-75
2023/11/10 06:28:35;;;;;;;5.70;3.40;;;;;;;9.59;77.55;97852.47;4956696;28;20066;-74
2023/11/10 06:31:04;;;;;;;7.03;4.38;;;;;;;9.60;77.51;97862.00;4967193;28;20051;-75
2023/11/10 06:33:31;;;;;;;6.63;3.75;;;;;;;9.60;77.46;97864.63;4961415;28;20046;-74
2023/11/10 06:35:58;;;;;;;7.00;3.88;;;;;;;9.60;77.51;97864.63;4961187;28;20419;-73
2023/11/10 06:38:25;;;;;;;6.97;3.83;;;;;;;9.61;77.59;97866.31;4954658;28;20500;-74
2023/11/10 06:40:53;;;;;;;5.70;3.28;;;;;;;9.60;77.28;97864.63;4953490;28;20444;-74
2023/11/10 06:43:20;;;;;;;5.93;3.35;;;;;;;9.60;77.64;97865.47;4954000;28;20535;-74
2023/11/10 06:45:47;;;;;;;7.15;3.38;;;;;;;9.60;77.66;97870.72;4967913;28;20149;-74
2023/11/10 06:48:15;;;;;;;5.22;2.80;;;;;;;9.61;77.50;97871.56;4953929;28;20066;-74
2023/11/10 06:50:43;;;;;;;9.43;3.30;;;;;;;9.60;77.35;97870.72;4954028;28;20086;-74
2023/11/10 06:53:10;;;;;;;7.80;3.58;;;;;;;9.61;77.41;97877.63;4953050;28;20055;-75
2023/11/10 06:55:37;;;;;;;5.57;3.28;;;;;;;9.61;77.51;97876.81;4954498;28;20063;-73
2023/11/10 06:58:05;;;;;;;8.75;3.47;;;;;;;9.61;77.56;97885.50;4953312;28;20043;-74
2023/11/10 07:00:32;;;;;;;6.72;2.78;;;;;;;9.63;77.78;97880.13;4954191;28;20105;-74
2023/11/10 07:03:00;;;;;;;8.32;2.90;;;;;;;9.64;77.87;97890.53;4954262;28;20393;-74
2023/11/10 07:05:27;;;;;;;5.13;2.70;;;;;;;9.66;77.63;97890.41;4954176;28;20645;-74
2023/11/10 07:07:54;;;;;;;3.38;2.45;;;;;;;9.67;77.64;97886.81;4952831;28;20087;-74
2023/11/10 07:10:20;;;;;;;4.72;2.85;;;;;;;9.69;77.65;97886.69;4952826;28;20106;-73
2023/11/10 07:12:47;;;;;;;5.32;2.60;;;;;;;9.70;77.55;97889.19;4954681;28;20046;-75
2023/11/10 07:15:14;;;;;;;5.75;2.58;;;;;;;9.72;77.50;97896.94;4953901;28;20466;-74
2023/11/10 07:17:43;;;;;;;4.20;2.35;;;;;;;9.73;77.58;97891.56;4954073;28;20084;-74
2023/11/10 07:20:11;;;;;;;4.53;2.42;;;;;;;9.75;77.70;97894.03;4953912;28;20054;-73
2023/11/10 07:22:38;;;;;;;5.53;2.30;;;;;;;9.75;77.53;97891.41;4953938;28;20059;-74
2023/11/10 07:25:06;;;;;;;9.30;2.35;;;;;;;9.76;77.58;97886.03;4954329;28;20049;-73
2023/11/10 07:27:34;;;;;;;5.35;2.20;;;;;;;9.80;77.57;97893.66;4966630;28;20058;-73
2023/11/10 07:30:00;;;;;;;5.65;2.60;;;;;;;9.81;77.45;97904.03;4961006;28;20050;-74
2023/11/10 07:32:29;;;;;;;8.07;2.40;;;;;;;9.83;77.51;97888.97;4956399;28;20157;-74
2023/11/10 07:34:56;;;;;;;5.97;2.50;;;;;;;9.84;77.49;97892.44;4967997;28;20051;-75
2023/11/10 07:37:26;;;;;;;6.03;3.30;;;;;;;9.85;77.18;97899.34;4959436;28;20054;-77
2023/11/10 07:39:53;;;;;;;8.25;3.33;;;;;;;9.87;76.93;97897.44;4961608;28;20051;-77
2023/11/10 07:42:21;;;;;;;5.80;3.03;;;;;;;9.87;77.36;97900.06;4952140;28;20130;-74
2023/11/10 07:44:47;;;;;;;6.53;3.30;;;;;;;9.88;77.16;97889.41;4960744;28;20054;-75
2023/11/10 07:47:14;;;;;;;5.95;3.60;;;;;;;9.89;77.33;97901.59;4958485;28;20090;-75
2023/11/10 07:49:40;;;;;;;7.38;3.45;;;;;;;9.90;77.49;97903.28;4964316;28;20110;-74
2023/11/10 07:52:09;;;;;;;9.98;4.10;;;;;;;9.92;77.53;97905.78;4956832;28;20125;-77
2023/11/10 07:54:35;;;;;;;6.18;3.95;;;;;;;9.93;77.33;97912.69;4963120;28;20047;-75
2023/11/10 07:57:02;;;;;;;7.50;3.80;;;;;;;9.94;77.18;97914.34;4955503;28;20057;-75
2023/11/10 07:59:28;;;;;;;7.43;4.28;;;;;;;9.93;77.00;97912.69;4952245;28;20066;-76
2023/11/10 08:01:55;;;;;;;8.07;4.35;;;;;;;9.94;77.20;97914.34;4952360;28;20121;-75
2023/11/10 08:04:22;;;;;;;6.00;3.75;;;;;;;9.94;77.02;97913.53;4953191;28;20082;-76
2023/11/10 08:06:48;;;;;;;5.72;3.67;;;;;;;9.96;77.24;97911.59;4953268;28;20059;-74
2023/11/10 08:09:21;;;;;;;9.35;4.68;;;;;;;9.97;77.31;97913.25;4953347;28;20543;-75
2023/11/10 08:11:48;;;;;;;8.77;3.92;;;;;;;9.97;77.42;97913.25;4958918;28;20054;-75
2023/11/10 08:14:20;;;;;;;6.63;4.03;;;;;;;9.98;77.33;97910.50;4953291;28;20051;-75
2023/11/10 08:16:47;;;;;;;6.45;3.67;;;;;;;9.99;77.52;97916.59;4964845;28;20137;-75
2023/11/10 08:21:43;;;;;;;8.18;3.83;;;;;;;10.02;77.25;97925.06;4931308;29;20055;-83
2023/11/10 08:24:10;;;;;;;6.60;3.88;;;;;;;10.04;77.34;97931.03;4933265;29;20500;-83
2023/11/10 08:26:37;;;;;;;5.20;2.70;;;;;;;10.06;77.10;97924.81;4933298;29;20142;-84
2023/11/10 08:29:04;;;;;;;5.93;3.08;;;;;;;10.05;76.71;97916.06;4933378;29;20051;-84
2023/11/10 08:31:30;;;;;;;5.50;2.75;;;;;;;10.07;77.00;97923.81;4933089;29;20056;-83
2023/11/10 08:33:57;;;;;;;8.32;2.65;;;;;;;10.07;77.00;97931.72;4933114;29;20044;-83
2023/11/10 08:36:23;;;;;;;5.13;2.67;;;;;;;10.09;76.96;97930.63;4932663;29;20063;-83
2023/11/10 08:38:50;;;;;;;5.88;2.55;;;;;;;10.09;76.93;97922.72;4930758;29;20521;-83
2023/11/10 08:41:17;;;;;;;4.35;2.50;;;;;;;10.12;76.86;97926.91;4933063;29;20094;-83
2023/11/10 08:43:45;;;;;;;6.88;2.67;;;;;;;10.13;77.04;97925.97;4933189;29;20135;-82
2023/11/10 08:46:12;;;;;;;3.67;2.13;;;;;;;10.14;76.79;97931.06;4933169;29;20075;-83
2023/11/10 08:48:39;;;;;;;5.05;2.22;;;;;;;10.15;76.85;97927.50;4931980;29;20084;-82
2023/11/10 08:51:05;;;;;;;9.10;2.72;;;;;;;10.19;77.21;97919.31;4932265;29;20058;-82
2023/11/10 08:53:32;;;;;;;4.95;2.33;;;;;;;10.21;77.11;97918.22;4926932;29;20409;-82
2023/11/10 08:56:01;;;;;;;5.25;2.17;;;;;;;10.24;77.01;97925.84;4932767;29;20063;-83
2023/11/10 08:58:28;;;;;;;7.68;2.10;;;;;;;10.27;76.86;97922.13;4931224;29;20138;-83
2023/11/10 09:00:54;;;;;;;5.80;1.98;;;;;;;10.30;76.62;97917.47;4936236;29;20048;-82
2023/11/10 09:03:21;;;;;;;3.45;1.90;;;;;;;10.34;76.68;97930.31;4935698;29;20567;-82
2023/11/10 09:05:47;;;;;;;5.22;1.77;;;;;;;10.35;76.37;97932.00;4936559;29;20063;-82
2023/11/10 09:08:14;;;;;;;7.90;1.90;;;;;;;10.36;76.17;97931.03;4934677;29;20083;-82
2023/11/10 09:10:40;;;;;;;3.85;1.80;;;;;;;10.36;75.95;97934.47;4936184;29;20056;-83
2023/11/10 09:13:08;;;;;;;6.03;1.52;;;;;;;10.35;75.64;97932.81;4933329;29;20454;-82
2023/11/10 09:15:36;;;;;;;5.32;1.83;;;;;;;10.36;76.02;97937.13;4925974;29;20056;-82
2023/11/10 09:18:03;;;;;;;4.20;1.75;;;;;;;10.36;75.78;97937.13;4929754;29;20056;-84
2023/11/10 09:20:29;;;;;;;3.53;2.22;;;;;;;10.36;75.68;97937.13;4936007;29;20489;-82
2023/11/10 09:22:56;;;;;;;6.72;2.92;;;;;;;10.37;75.64;97930.06;4935051;29;20095;-82
2023/11/10 09:25:24;;;;;;;3.95;2.67;;;;;;;10.38;75.86;97942.25;4935267;29;20058;-82
2023/11/10 09:27:52;;;;;;;5.97;3.20;;;;;;;10.38;75.94;97931.72;4934537;29;20075;-82
2023/11/10 09:30:19;;;;;;;7.30;2.92;;;;;;;10.39;76.36;97939.50;4936136;29;20071;-82
2023/11/10 09:32:45;;;;;;;7.88;3.47;;;;;;;10.42;76.32;97938.38;4936043;29;20066;-83
2023/11/10 09:35:13;;;;;;;6.68;3.00;;;;;;;10.45;76.17;97930.28;4933481;29;20130;-83
2023/11/10 09:37:40;;;;;;;5.60;2.92;;;;;;;10.48;76.63;97935.28;4936040;29;20416;-83
2023/11/10 09:40:08;;;;;;;5.60;3.13;;;;;;;10.53;76.75;97940.13;4928397;29;20098;-82
2023/11/10 09:42:35;;;;;;;4.78;3.50;;;;;;;10.57;76.21;97930.19;4935834;29;20063;-82
2023/11/10 09:45:03;;;;;;;7.70;3.80;;;;;;;10.61;76.36;97927.16;4934799;29;20052;-82
2023/11/10 09:47:29;;;;;;;5.15;3.00;;;;;;;10.65;76.06;97931.19;4935803;29;20047;-82
2023/11/10 09:49:57;;;;;;;7.15;3.28;;;;;;;10.67;75.19;97925.78;4934400;29;20095;-82
2023/11/10 09:52:25;;;;;;;7.15;3.60;;;;;;;10.69;74.62;97935.22;4935683;29;20048;-82
2023/11/10 09:54:52;;;;;;;5.00;3.20;;;;;;;10.71;74.77;97934.25;4935251;29;20083;-83
2023/11/10 09:57:20;;;;;;;5.28;2.88;;;;;;;10.71;74.74;97929.81;4930503;29;20059;-83
2023/11/10 09:59:52;;;;;;;4.85;3.10;;;;;;;10.72;74.98;97935.94;4935666;29;20055;-82
2023/11/10 10:02:19;;;;;;;5.20;2.63;;;;;;;10.71;74.58;97929.81;4935503;29;20055;-82
2023/11/10 10:04:45;;;;;;;5.70;3.42;;;;;;;10.73;74.97;97933.13;4934700;29;20058;-83
2023/11/10 10:07:12;;;;;;;3.95;2.60;;;;;;;10.73;74.83;97933.13;4927093;29;20103;-82
2023/11/10 10:09:44;;;;;;;5.30;2.70;;;;;;;10.73;73.64;97927.06;4927293;29;20063;-82
2023/11/10 10:12:12;;;;;;;4.60;3.05;;;;;;;10.77;74.77;97928.47;4927815;29;20051;-83
2023/11/10 10:14:39;;;;;;;2.97;2.08;;;;;;;10.77;75.03;97918.75;4935574;29;20060;-82
2023/11/10 10:17:07;;;;;;;6.00;2.50;;;;;;;10.80;75.10;97917.63;4927222;29;20466;-82
2023/11/10 10:19:33;;;;;;;5.55;2.20;;;;;;;10.84;74.71;97920.84;4933783;29;20130;-82
2023/11/10 10:22:00;;;;;;;5.03;2.45;;;;;;;10.87;74.93;97918.78;4934984;29;20048;-83
2023/11/10 10:24:27;;;;;;;6.65;2.00;;;;;;;10.90;74.24;97926.41;4935156;29;20059;-82
2023/11/10 10:26:55;;;;;;;4.43;2.20;;;;;;;10.94;74.65;97911.16;4925621;29;20047;-82
2023/11/10 10:29:22;;;;;;;4.25;2.00;;;;;;;10.99;74.78;97918.66;4934611;29;20475;-82
2023/11/10 10:31:49;;;;;;;3.55;2.08;;;;;;;11.03;75.04;97920.88;4934789;29;20067;-83
2023/11/10 10:34:16;;;;;;;3.58;1.80;;;;;;;11.12;75.61;97918.41;4935138;29;20059;-82
2023/11/10 10:36:44;;;;;;;5.18;2.22;;;;;;;11.19;75.94;97914.25;4932827;29;20052;-83
2023/11/10 10:39:15;;;;;;;5.03;1.90;;;;;;;11.28;74.65;97920.50;4927490;29;20051;-82
2023/11/10 10:41:43;;;;;;;3.53;1.40;;;;;;;11.37;76.08;97914.41;4930505;29;20052;-82
2023/11/10 10:44:09;;;;;;;3.08;1.55;;;;;;;11.46;75.51;97918.00;4935002;29;20055;-81
2023/11/10 10:46:37;;;;;;;5.47;1.42;;;;;;;11.52;74.82;97912.19;4934664;29;20051;-82
2023/11/10 10:49:06;;;;;;;3.70;1.48;;;;;;;11.56;74.08;97913.56;4933876;29;20453;-82
2023/11/10 10:51:37;;;;;;;3.92;1.60;;;;;;;11.58;73.28;97909.00;4934476;29;20047;-82
2023/11/10 10:54:06;;;;;;;7.70;1.58;;;;;;;11.57;72.59;97917.88;4933537;29;20062;-81
2023/11/10 10:56:35;;;;;;;3.17;1.20;;;;;;;11.54;72.34;97907.59;4934649;29;20103;-83
2023/11/10 10:59:11;;;;;;;2.70;1.38;;;;;;;11.53;72.84;97911.22;4927910;29;20448;-82
2023/11/10 11:01:37;;;;;;;3.92;1.00;;;;;;;11.50;72.88;97908.84;4934264;29;20057;-83
2023/11/10 11:04:17;;;;;;;4.40;1.15;;;;;;;11.43;70.66;97907.72;4934324;29;20047;-82
2023/11/10 11:07:05;;;;;;;2.70;1.40;;;;;;;11.43;71.93;97905.09;4934539;29;20051;-82
2023/11/10 11:09:50;;;;;;;5.00;1.33;;;;;;;11.37;70.63;97895.97;4929586;29;20054;-82
2023/11/10 11:12:33;;;;;;;3.10;1.10;;;;;;;11.36;71.06;97894.28;4926582;29;20139;-82
2023/11/10 11:15:31;;;;;;;2.65;1.27;;;;;;;11.33;71.06;97895.41;4934221;29;20519;-83
2023/11/10 11:18:17;;;;;;;4.07;1.38;;;;;;;11.37;71.95;97895.13;4932187;29;20052;-83
2023/11/10 11:20:49;;;;;;;6.03;1.52;;;;;;;11.37;72.17;97889.88;4933027;29;20048;-82
2023/11/10 11:23:21;;;;;;;2.67;1.30;;;;;;;11.37;72.82;97892.50;4932915;29;20134;-82
2023/11/10 11:25:56;;;;;;;3.17;1.27;;;;;;;11.39;73.69;97882.63;4934388;29;20051;-81
2023/11/10 11:28:28;;;;;;;5.25;1.40;;;;;;;11.39;72.56;97885.28;4933187;29;20411;-81
2023/11/10 11:31:08;;;;;;;6.45;1.33;;;;;;;11.37;71.49;97887.22;4926989;29;20048;-82
2023/11/10 11:33:44;;;;;;;4.82;1.80;;;;;;;11.37;72.04;97885.44;4934180;29;20059;-82
2023/11/10 11:36:14;;;;;;;7.65;1.80;;;;;;;11.40;72.61;97890.41;4934155;29;20058;-82
2023/11/10 11:38:41;;;;;;;4.20;1.50;;;;;;;11.41;73.68;97876.28;4933150;29;20055;-82
2023/11/10 11:41:10;;;;;;;4.05;1.48;;;;;;;11.43;73.68;97878.75;4929121;29;20118;-82
2023/11/10 11:43:57;;;;;;;4.28;1.40;;;;;;;11.40;71.01;97871.16;4930191;29;20134;-81